TimeHST,TemperatureF,Dew PointF,Humidity,Sea Level PressureIn,VisibilityMPH,Wind Direction,Wind SpeedMPH,Gust SpeedMPH,PrecipitationIn,Events,Conditions,WindDirDegrees,DateUTC
12:54 AM,75.9,70.0,82,30.06,10.0,NE,10.4,-,N/A,,Clear,40,2013-09-11 10:54:00
1:54 AM,77.0,73.0,88,30.05,10.0,NE,8.1,-,N/A,,Partly Cloudy,50,2013-09-11 11:54:00
2:54 AM,77.0,68.0,74,30.04,10.0,NE,9.2,-,N/A,,Overcast,50,2013-09-11 12:54:00
3:54 AM,75.9,71.1,85,30.04,10.0,NE,8.1,-,N/A,,Partly Cloudy,40,2013-09-11 13:54:00
4:54 AM,77.0,72.0,84,30.04,10.0,NE,13.8,-,N/A,,Clear,40,2013-09-11 14:54:00
5:54 AM,77.0,73.0,88,30.05,10.0,NE,12.7,-,N/A,,Partly Cloudy,40,2013-09-11 15:54:00
6:54 AM,77.0,73.0,88,30.07,10.0,NE,10.4,-,N/A,,Clear,40,2013-09-11 16:54:00
7:54 AM,81.0,71.1,72,30.09,10.0,NE,13.8,-,N/A,,Scattered Clouds,40,2013-09-11 17:54:00
8:54 AM,84.0,72.0,67,30.10,10.0,NNE,17.3,-,N/A,,Scattered Clouds,30,2013-09-11 18:54:00
10:54 AM,82.9,71.1,67,30.09,10.0,NE,17.3,26.5,N/A,,Scattered Clouds,40,2013-09-11 20:54:00
11:54 AM,84.9,73.0,67,30.09,10.0,NNE,21.9,-,N/A,,Mostly Cloudy,30,2013-09-11 21:54:00
12:54 PM,89.1,73.0,59,30.06,10.0,NNE,18.4,-,N/A,,Mostly Cloudy,30,2013-09-11 22:54:00
1:54 PM,87.1,72.0,61,30.03,10.0,NNE,20.7,-,N/A,,Scattered Clouds,30,2013-09-11 23:54:00
2:54 PM,87.1,73.9,65,30.01,10.0,NNE,20.7,-,N/A,,Scattered Clouds,30,2013-09-12 00:54:00
3:54 PM,84.9,73.9,69,30.01,10.0,NNE,18.4,-,N/A,,Scattered Clouds,30,2013-09-12 01:54:00
4:54 PM,82.9,75.0,77,30.01,10.0,NNE,17.3,-,N/A,,Partly Cloudy,20,2013-09-12 02:54:00
5:54 PM,82.0,73.0,74,30.01,10.0,NNE,19.6,-,N/A,,Partly Cloudy,30,2013-09-12 03:54:00
6:54 PM,80.1,73.9,81,30.03,10.0,NE,15.0,-,N/A,,Partly Cloudy,40,2013-09-12 04:54:00
7:54 PM,79.0,73.9,84,30.04,10.0,NNE,13.8,-,N/A,,Clear,30,2013-09-12 05:54:00
8:54 PM,79.0,73.9,84,30.06,10.0,NNE,10.4,-,N/A,,Clear,30,2013-09-12 06:54:00
9:54 PM,78.1,73.9,87,30.06,10.0,NE,9.2,-,N/A,,Partly Cloudy,40,2013-09-12 07:54:00
10:51 PM,78.8,75.2,89,30.04,10.0,NE,4.6,-,N/A,,Partly Cloudy,50,2013-09-12 08:51:00
10:54 PM,78.1,75.0,90,30.06,10.0,NE,4.6,-,N/A,,Partly Cloudy,50,2013-09-12 08:54:00
11:54 PM,77.0,73.0,88,30.05,10.0,Calm,Calm,-,N/A,,Clear,0,2013-09-12 09:54:00